sensor_id;sensor_type;location;lat;lon;timestamp;P1;durP1;ratioP1;P2;durP2;ratioP2
30036;SDS011;36325;51.512;-0.382;2023-02-17T00:01:20;22.50;;;4.68;;
30036;SDS011;36325;51.512;-0.382;2023-02-17T00:03:49;9.98;;;3.38;;
30036;SDS011;36325;51.512;-0.382;2023-02-17T00:06:18;23.80;;;4.60;;
30036;SDS011;36325;51.512;-0.382;2023-02-17T00:08:47;9.55;;;3.85;;
30036;SDS011;36325;51.512;-0.382;2023-02-17T00:11:15;19.02;;;4.68;;
30036;SDS011;36325;51.512;-0.382;2023-02-17T00:13:43;12.35;;;3.53;;
30036;SDS011;36325;51.512;-0.382;2023-02-17T00:16:15;6.55;;;3.03;;
30036;SDS011;36325;51.512;-0.382;2023-02-17T00:18:45;9.55;;;3.05;;
30036;SDS011;36325;51.512;-0.382;2023-02-17T00:21:14;6.97;;;2.67;;
30036;SDS011;36325;51.512;-0.382;2023-02-17T00:23:42;10.85;;;3.97;;
30036;SDS011;36325;51.512;-0.382;2023-02-17T00:26:10;9.38;;;3.35;;
30036;SDS011;36325;51.512;-0.382;2023-02-17T00:28:39;14.27;;;4.53;;
30036;SDS011;36325;51.512;-0.382;2023-02-17T00:31:12;12.75;;;3.78;;
30036;SDS011;36325;51.512;-0.382;2023-02-17T00:33:41;8.30;;;3.38;;
30036;SDS011;36325;51.512;-0.382;2023-02-17T00:36:10;12.20;;;3.55;;
30036;SDS011;36325;51.512;-0.382;2023-02-17T00:38:39;7.72;;;2.65;;
30036;SDS011;36325;51.512;-0.382;2023-02-17T00:41:06;7.60;;;3.35;;
30036;SDS011;36325;51.512;-0.382;2023-02-17T00:43:33;7.97;;;3.65;;
30036;SDS011;36325;51.512;-0.382;2023-02-17T00:46:00;19.08;;;3.50;;
30036;SDS011;36325;51.512;-0.382;2023-02-17T00:48:30;8.73;;;3.53;;
30036;SDS011;36325;51.512;-0.382;2023-02-17T00:50:57;13.02;;;3.13;;
30036;SDS011;36325;51.512;-0.382;2023-02-17T00:53:25;7.78;;;2.90;;
30036;SDS011;36325;51.512;-0.382;2023-02-17T00:55:52;9.02;;;3.08;;
30036;SDS011;36325;51.512;-0.382;2023-02-17T00:58:19;6.15;;;3.75;;
30036;SDS011;36325;51.512;-0.382;2023-02-17T01:00:47;18.10;;;3.58;;
30036;SDS011;36325;51.512;-0.382;2023-02-17T01:03:14;10.68;;;3.60;;
30036;SDS011;36325;51.512;-0.382;2023-02-17T01:05:43;15.05;;;4.78;;
30036;SDS011;36325;51.512;-0.382;2023-02-17T01:08:14;5.25;;;2.67;;
30036;SDS011;36325;51.512;-0.382;2023-02-17T01:10:44;19.10;;;4.47;;
30036;SDS011;36325;51.512;-0.382;2023-02-17T01:13:12;13.75;;;4.03;;
30036;SDS011;36325;51.512;-0.382;2023-02-17T01:15:42;15.48;;;3.63;;
30036;SDS011;36325;51.512;-0.382;2023-02-17T01:18:12;15.45;;;3.47;;
30036;SDS011;36325;51.512;-0.382;2023-02-17T01:20:39;9.95;;;3.25;;
30036;SDS011;36325;51.512;-0.382;2023-02-17T01:23:07;16.27;;;4.30;;
30036;SDS011;36325;51.512;-0.382;2023-02-17T01:25:39;16.98;;;3.88;;
30036;SDS011;36325;51.512;-0.382;2023-02-17T01:28:08;17.55;;;3.92;;
30036;SDS011;36325;51.512;-0.382;2023-02-17T01:30:40;13.15;;;3.72;;
30036;SDS011;36325;51.512;-0.382;2023-02-17T01:33:07;8.90;;;4.50;;
30036;SDS011;36325;51.512;-0.382;2023-02-17T01:35:34;20.92;;;5.00;;
30036;SDS011;36325;51.512;-0.382;2023-02-17T01:38:03;30.65;;;6.30;;
30036;SDS011;36325;51.512;-0.382;2023-02-17T01:40:30;10.32;;;3.72;;
30036;SDS011;36325;51.512;-0.382;2023-02-17T01:42:57;18.85;;;4.60;;
30036;SDS011;36325;51.512;-0.382;2023-02-17T01:45:38;6.45;;;3.25;;
30036;SDS011;36325;51.512;-0.382;2023-02-17T01:48:12;9.95;;;4.10;;
30036;SDS011;36325;51.512;-0.382;2023-02-17T01:50:44;10.45;;;3.88;;
30036;SDS011;36325;51.512;-0.382;2023-02-17T01:53:17;6.82;;;3.88;;
30036;SDS011;36325;51.512;-0.382;2023-02-17T01:55:51;7.65;;;4.00;;
30036;SDS011;36325;51.512;-0.382;2023-02-17T01:58:20;6.75;;;4.03;;
30036;SDS011;36325;51.512;-0.382;2023-02-17T02:00:50;6.10;;;3.92;;
30036;SDS011;36325;51.512;-0.382;2023-02-17T02:03:21;5.55;;;4.22;;
30036;SDS011;36325;51.512;-0.382;2023-02-17T02:05:49;16.35;;;5.95;;
30036;SDS011;36325;51.512;-0.382;2023-02-17T02:08:17;14.23;;;5.13;;
30036;SDS011;36325;51.512;-0.382;2023-02-17T02:10:44;10.68;;;4.60;;
30036;SDS011;36325;51.512;-0.382;2023-02-17T02:13:11;11.18;;;5.05;;
30036;SDS011;36325;51.512;-0.382;2023-02-17T02:15:40;6.60;;;3.53;;
30036;SDS011;36325;51.512;-0.382;2023-02-17T02:18:40;6.20;;;3.65;;
30036;SDS011;36325;51.512;-0.382;2023-02-17T02:24:15;7.95;;;4.28;;
30036;SDS011;36325;51.512;-0.382;2023-02-17T02:35:20;4.57;;;3.35;;
30036;SDS011;36325;51.512;-0.382;2023-02-17T02:40:53;7.18;;;3.65;;
30036;SDS011;36325;51.512;-0.382;2023-02-17T02:43:29;6.20;;;3.92;;
30036;SDS011;36325;51.512;-0.382;2023-02-17T02:45:57;7.57;;;3.33;;
30036;SDS011;36325;51.512;-0.382;2023-02-17T02:48:25;10.25;;;3.83;;
30036;SDS011;36325;51.512;-0.382;2023-02-17T02:51:11;4.57;;;3.17;;
30036;SDS011;36325;51.512;-0.382;2023-02-17T02:56:26;6.50;;;3.35;;
30036;SDS011;36325;51.512;-0.382;2023-02-17T03:04:54;5.78;;;2.88;;
30036;SDS011;36325;51.512;-0.382;2023-02-17T03:08:07;4.68;;;2.33;;
30036;SDS011;36325;51.512;-0.382;2023-02-17T03:10:43;2.58;;;2.15;;
30036;SDS011;36325;51.512;-0.382;2023-02-17T03:13:20;8.88;;;2.42;;
30036;SDS011;36325;51.512;-0.382;2023-02-17T03:15:47;2.35;;;1.92;;
30036;SDS011;36325;51.512;-0.382;2023-02-17T03:18:15;2.50;;;2.00;;
30036;SDS011;36325;51.512;-0.382;2023-02-17T03:21:05;2.10;;;1.58;;
30036;SDS011;36325;51.512;-0.382;2023-02-17T03:23:35;4.35;;;1.60;;
30036;SDS011;36325;51.512;-0.382;2023-02-17T03:26:02;2.55;;;1.42;;
30036;SDS011;36325;51.512;-0.382;2023-02-17T03:28:31;4.47;;;2.13;;
30036;SDS011;36325;51.512;-0.382;2023-02-17T03:30:58;3.53;;;1.52;;
30036;SDS011;36325;51.512;-0.382;2023-02-17T03:33:26;5.05;;;1.65;;
30036;SDS011;36325;51.512;-0.382;2023-02-17T03:35:53;2.10;;;1.20;;
30036;SDS011;36325;51.512;-0.382;2023-02-17T03:38:21;2.60;;;1.42;;
30036;SDS011;36325;51.512;-0.382;2023-02-17T03:40:48;4.00;;;1.63;;
30036;SDS011;36325;51.512;-0.382;2023-02-17T03:43:15;1.60;;;1.00;;
30036;SDS011;36325;51.512;-0.382;2023-02-17T03:45:43;2.08;;;1.15;;
30036;SDS011;36325;51.512;-0.382;2023-02-17T03:48:13;2.67;;;1.55;;
30036;SDS011;36325;51.512;-0.382;2023-02-17T03:50:40;4.78;;;1.20;;
30036;SDS011;36325;51.512;-0.382;2023-02-17T03:53:09;3.10;;;1.48;;
30036;SDS011;36325;51.512;-0.382;2023-02-17T03:55:37;6.13;;;1.40;;
30036;SDS011;36325;51.512;-0.382;2023-02-17T03:58:04;2.35;;;1.20;;
30036;SDS011;36325;51.512;-0.382;2023-02-17T04:00:32;4.03;;;1.73;;
30036;SDS011;36325;51.512;-0.382;2023-02-17T04:02:59;2.35;;;1.33;;
30036;SDS011;36325;51.512;-0.382;2023-02-17T04:05:26;5.70;;;1.55;;
30036;SDS011;36325;51.512;-0.382;2023-02-17T04:07:54;4.80;;;1.73;;
30036;SDS011;36325;51.512;-0.382;2023-02-17T04:10:21;3.35;;;1.75;;
30036;SDS011;36325;51.512;-0.382;2023-02-17T04:12:48;3.10;;;1.30;;
30036;SDS011;36325;51.512;-0.382;2023-02-17T04:15:15;3.83;;;1.63;;
30036;SDS011;36325;51.512;-0.382;2023-02-17T04:17:42;5.38;;;1.20;;
30036;SDS011;36325;51.512;-0.382;2023-02-17T04:20:10;2.25;;;1.15;;
30036;SDS011;36325;51.512;-0.382;2023-02-17T04:22:37;4.53;;;1.42;;
30036;SDS011;36325;51.512;-0.382;2023-02-17T04:25:05;2.35;;;1.50;;
30036;SDS011;36325;51.512;-0.382;2023-02-17T04:27:32;3.53;;;1.27;;
30036;SDS011;36325;51.512;-0.382;2023-02-17T04:29:59;4.15;;;1.23;;
30036;SDS011;36325;51.512;-0.382;2023-02-17T04:32:26;2.95;;;1.20;;
30036;SDS011;36325;51.512;-0.382;2023-02-17T04:34:54;1.85;;;1.20;;
30036;SDS011;36325;51.512;-0.382;2023-02-17T04:37:21;1.85;;;1.00;;
30036;SDS011;36325;51.512;-0.382;2023-02-17T04:39:49;5.85;;;1.27;;
30036;SDS011;36325;51.512;-0.382;2023-02-17T04:42:16;4.18;;;1.30;;
30036;SDS011;36325;51.512;-0.382;2023-02-17T04:44:43;2.40;;;0.90;;
30036;SDS011;36325;51.512;-0.382;2023-02-17T04:47:10;5.78;;;0.70;;
30036;SDS011;36325;51.512;-0.382;2023-02-17T04:49:38;3.15;;;0.75;;
30036;SDS011;36325;51.512;-0.382;2023-02-17T04:52:05;4.30;;;0.80;;
30036;SDS011;36325;51.512;-0.382;2023-02-17T04:54:32;4.38;;;1.23;;
30036;SDS011;36325;51.512;-0.382;2023-02-17T04:56:59;4.20;;;0.93;;
30036;SDS011;36325;51.512;-0.382;2023-02-17T04:59:26;2.28;;;0.70;;
30036;SDS011;36325;51.512;-0.382;2023-02-17T05:01:53;1.88;;;0.70;;
30036;SDS011;36325;51.512;-0.382;2023-02-17T05:04:20;1.80;;;0.80;;
30036;SDS011;36325;51.512;-0.382;2023-02-17T05:06:48;3.45;;;0.68;;
30036;SDS011;36325;51.512;-0.382;2023-02-17T05:09:15;0.60;;;0.45;;
30036;SDS011;36325;51.512;-0.382;2023-02-17T05:11:42;2.15;;;0.70;;
30036;SDS011;36325;51.512;-0.382;2023-02-17T05:14:09;5.30;;;0.60;;
30036;SDS011;36325;51.512;-0.382;2023-02-17T05:16:37;5.75;;;0.70;;
30036;SDS011;36325;51.512;-0.382;2023-02-17T05:19:04;3.80;;;0.93;;
30036;SDS011;36325;51.512;-0.382;2023-02-17T05:21:31;2.33;;;0.50;;
30036;SDS011;36325;51.512;-0.382;2023-02-17T05:24:01;3.40;;;0.80;;
30036;SDS011;36325;51.512;-0.382;2023-02-17T05:26:28;2.30;;;0.75;;
30036;SDS011;36325;51.512;-0.382;2023-02-17T05:28:55;3.25;;;0.60;;
30036;SDS011;36325;51.512;-0.382;2023-02-17T05:31:22;1.92;;;0.40;;
30036;SDS011;36325;51.512;-0.382;2023-02-17T05:33:51;5.97;;;0.88;;
30036;SDS011;36325;51.512;-0.382;2023-02-17T05:36:20;1.55;;;0.30;;
30036;SDS011;36325;51.512;-0.382;2023-02-17T05:38:47;3.35;;;0.20;;
30036;SDS011;36325;51.512;-0.382;2023-02-17T05:41:15;1.30;;;0.20;;
30036;SDS011;36325;51.512;-0.382;2023-02-17T05:43:43;0.80;;;0.60;;
30036;SDS011;36325;51.512;-0.382;2023-02-17T05:46:11;2.97;;;0.40;;
30036;SDS011;36325;51.512;-0.382;2023-02-17T05:48:38;5.75;;;0.90;;
30036;SDS011;36325;51.512;-0.382;2023-02-17T05:51:10;2.10;;;0.57;;
30036;SDS011;36325;51.512;-0.382;2023-02-17T05:53:51;2.25;;;0.35;;
30036;SDS011;36325;51.512;-0.382;2023-02-17T05:56:18;1.08;;;0.32;;
30036;SDS011;36325;51.512;-0.382;2023-02-17T05:58:45;0.28;;;0.28;;
30036;SDS011;36325;51.512;-0.382;2023-02-17T06:01:12;0.77;;;0.10;;
30036;SDS011;36325;51.512;-0.382;2023-02-17T06:03:40;0.38;;;0.30;;
30036;SDS011;36325;51.512;-0.382;2023-02-17T06:06:07;2.78;;;0.20;;
30036;SDS011;36325;51.512;-0.382;2023-02-17T06:08:35;5.90;;;0.30;;
30036;SDS011;36325;51.512;-0.382;2023-02-17T06:11:02;0.68;;;0.20;;
30036;SDS011;36325;51.512;-0.382;2023-02-17T06:13:30;1.55;;;0.10;;
30036;SDS011;36325;51.512;-0.382;2023-02-17T06:15:57;0.40;;;0.20;;
30036;SDS011;36325;51.512;-0.382;2023-02-17T06:18:24;2.45;;;0.30;;
30036;SDS011;36325;51.512;-0.382;2023-02-17T06:20:53;0.45;;;0.13;;
30036;SDS011;36325;51.512;-0.382;2023-02-17T06:23:22;1.05;;;0.20;;
30036;SDS011;36325;51.512;-0.382;2023-02-17T06:25:50;0.40;;;0.20;;
30036;SDS011;36325;51.512;-0.382;2023-02-17T06:28:18;1.23;;;0.22;;
30036;SDS011;36325;51.512;-0.382;2023-02-17T06:30:46;1.15;;;0.20;;
30036;SDS011;36325;51.512;-0.382;2023-02-17T06:33:13;0.90;;;0.30;;
30036;SDS011;36325;51.512;-0.382;2023-02-17T06:35:41;0.40;;;0.20;;
30036;SDS011;36325;51.512;-0.382;2023-02-17T06:38:10;3.90;;;0.30;;
30036;SDS011;36325;51.512;-0.382;2023-02-17T06:40:37;1.33;;;0.40;;
30036;SDS011;36325;51.512;-0.382;2023-02-17T06:43:05;3.13;;;0.47;;
30036;SDS011;36325;51.512;-0.382;2023-02-17T06:45:32;3.10;;;0.40;;
30036;SDS011;36325;51.512;-0.382;2023-02-17T06:48:00;1.55;;;0.28;;
30036;SDS011;36325;51.512;-0.382;2023-02-17T06:50:27;1.38;;;0.38;;
30036;SDS011;36325;51.512;-0.382;2023-02-17T06:52:54;3.53;;;0.40;;
30036;SDS011;36325;51.512;-0.382;2023-02-17T06:55:22;5.53;;;0.77;;
30036;SDS011;36325;51.512;-0.382;2023-02-17T06:57:49;0.52;;;0.35;;
30036;SDS011;36325;51.512;-0.382;2023-02-17T07:00:17;2.15;;;0.40;;
30036;SDS011;36325;51.512;-0.382;2023-02-17T07:02:45;4.55;;;0.90;;
30036;SDS011;36325;51.512;-0.382;2023-02-17T07:05:12;8.73;;;3.00;;
30036;SDS011;36325;51.512;-0.382;2023-02-17T07:07:39;5.05;;;1.25;;
30036;SDS011;36325;51.512;-0.382;2023-02-17T07:10:07;7.13;;;1.10;;
30036;SDS011;36325;51.512;-0.382;2023-02-17T07:12:35;4.45;;;1.08;;
30036;SDS011;36325;51.512;-0.382;2023-02-17T07:15:02;3.08;;;0.75;;
30036;SDS011;36325;51.512;-0.382;2023-02-17T07:17:40;6.20;;;1.27;;
30036;SDS011;36325;51.512;-0.382;2023-02-17T07:20:12;3.88;;;0.70;;
30036;SDS011;36325;51.512;-0.382;2023-02-17T07:22:39;6.57;;;1.55;;
30036;SDS011;36325;51.512;-0.382;2023-02-17T07:25:07;6.50;;;1.02;;
30036;SDS011;36325;51.512;-0.382;2023-02-17T07:27:35;3.17;;;1.08;;
30036;SDS011;36325;51.512;-0.382;2023-02-17T07:30:04;7.10;;;1.15;;
30036;SDS011;36325;51.512;-0.382;2023-02-17T07:32:32;5.65;;;1.00;;
30036;SDS011;36325;51.512;-0.382;2023-02-17T07:35:01;3.10;;;1.00;;
30036;SDS011;36325;51.512;-0.382;2023-02-17T07:37:28;4.25;;;0.82;;
30036;SDS011;36325;51.512;-0.382;2023-02-17T07:39:55;3.42;;;1.75;;
30036;SDS011;36325;51.512;-0.382;2023-02-17T07:42:23;1.75;;;0.98;;
30036;SDS011;36325;51.512;-0.382;2023-02-17T07:44:53;2.50;;;0.80;;
30036;SDS011;36325;51.512;-0.382;2023-02-17T07:47:21;4.95;;;1.55;;
30036;SDS011;36325;51.512;-0.382;2023-02-17T07:49:48;4.85;;;0.93;;
30036;SDS011;36325;51.512;-0.382;2023-02-17T07:52:16;1.25;;;0.50;;
30036;SDS011;36325;51.512;-0.382;2023-02-17T07:54:57;3.88;;;0.77;;
30036;SDS011;36325;51.512;-0.382;2023-02-17T07:57:25;0.52;;;0.40;;
30036;SDS011;36325;51.512;-0.382;2023-02-17T07:59:53;4.95;;;1.20;;
30036;SDS011;36325;51.512;-0.382;2023-02-17T08:02:20;3.20;;;1.40;;
30036;SDS011;36325;51.512;-0.382;2023-02-17T08:04:50;1.20;;;0.50;;
30036;SDS011;36325;51.512;-0.382;2023-02-17T08:07:18;1.52;;;0.82;;
30036;SDS011;36325;51.512;-0.382;2023-02-17T08:09:45;5.22;;;0.40;;
30036;SDS011;36325;51.512;-0.382;2023-02-17T08:12:33;2.17;;;0.60;;
30036;SDS011;36325;51.512;-0.382;2023-02-17T08:15:18;4.47;;;0.73;;
30036;SDS011;36325;51.512;-0.382;2023-02-17T08:17:46;1.40;;;0.80;;
30036;SDS011;36325;51.512;-0.382;2023-02-17T08:20:16;3.88;;;0.85;;
30036;SDS011;36325;51.512;-0.382;2023-02-17T08:22:43;15.57;;;1.60;;
30036;SDS011;36325;51.512;-0.382;2023-02-17T08:25:11;14.93;;;1.38;;
30036;SDS011;36325;51.512;-0.382;2023-02-17T08:27:39;6.22;;;0.70;;
30036;SDS011;36325;51.512;-0.382;2023-02-17T08:30:07;3.80;;;0.75;;
30036;SDS011;36325;51.512;-0.382;2023-02-17T08:32:35;2.28;;;0.57;;
30036;SDS011;36325;51.512;-0.382;2023-02-17T08:35:06;2.72;;;0.95;;
30036;SDS011;36325;51.512;-0.382;2023-02-17T08:37:33;5.40;;;0.85;;
30036;SDS011;36325;51.512;-0.382;2023-02-17T08:40:00;1.67;;;0.68;;
30036;SDS011;36325;51.512;-0.382;2023-02-17T08:42:28;5.72;;;1.25;;
30036;SDS011;36325;51.512;-0.382;2023-02-17T08:44:57;4.00;;;1.00;;
30036;SDS011;36325;51.512;-0.382;2023-02-17T08:47:25;0.98;;;0.60;;
30036;SDS011;36325;51.512;-0.382;2023-02-17T08:49:52;3.47;;;0.60;;
30036;SDS011;36325;51.512;-0.382;2023-02-17T08:52:20;2.20;;;0.52;;
30036;SDS011;36325;51.512;-0.382;2023-02-17T08:54:48;13.38;;;1.58;;
30036;SDS011;36325;51.512;-0.382;2023-02-17T08:57:21;4.80;;;0.73;;
30036;SDS011;36325;51.512;-0.382;2023-02-17T08:59:48;7.38;;;1.52;;
30036;SDS011;36325;51.512;-0.382;2023-02-17T09:02:16;4.03;;;0.60;;
30036;SDS011;36325;51.512;-0.382;2023-02-17T09:04:44;7.18;;;1.30;;
30036;SDS011;36325;51.512;-0.382;2023-02-17T09:07:12;1.73;;;0.40;;
30036;SDS011;36325;51.512;-0.382;2023-02-17T09:09:40;8.60;;;1.13;;
30036;SDS011;36325;51.512;-0.382;2023-02-17T09:12:08;3.38;;;1.00;;
30036;SDS011;36325;51.512;-0.382;2023-02-17T09:14:36;8.73;;;1.38;;
30036;SDS011;36325;51.512;-0.382;2023-02-17T09:17:04;3.28;;;1.17;;
30036;SDS011;36325;51.512;-0.382;2023-02-17T09:19:36;1.77;;;0.65;;
30036;SDS011;36325;51.512;-0.382;2023-02-17T09:22:06;7.13;;;1.80;;
30036;SDS011;36325;51.512;-0.382;2023-02-17T09:24:45;1.90;;;0.80;;
30036;SDS011;36325;51.512;-0.382;2023-02-17T09:27:16;1.65;;;0.82;;
30036;SDS011;36325;51.512;-0.382;2023-02-17T09:29:44;1.35;;;0.40;;
30036;SDS011;36325;51.512;-0.382;2023-02-17T09:32:14;1.30;;;0.45;;
30036;SDS011;36325;51.512;-0.382;2023-02-17T09:34:41;5.82;;;0.50;;
30036;SDS011;36325;51.512;-0.382;2023-02-17T09:37:19;1.38;;;0.28;;
30036;SDS011;36325;51.512;-0.382;2023-02-17T09:39:47;5.82;;;0.68;;
30036;SDS011;36325;51.512;-0.382;2023-02-17T09:42:19;1.52;;;0.57;;
30036;SDS011;36325;51.512;-0.382;2023-02-17T09:44:51;3.30;;;0.63;;
30036;SDS011;36325;51.512;-0.382;2023-02-17T09:47:28;3.90;;;0.65;;
30036;SDS011;36325;51.512;-0.382;2023-02-17T09:50:10;2.97;;;1.00;;
30036;SDS011;36325;51.512;-0.382;2023-02-17T09:52:44;7.15;;;0.73;;
30036;SDS011;36325;51.512;-0.382;2023-02-17T09:55:37;10.15;;;1.05;;
30036;SDS011;36325;51.512;-0.382;2023-02-17T09:58:13;11.88;;;1.15;;
30036;SDS011;36325;51.512;-0.382;2023-02-17T10:00:46;5.53;;;1.10;;
30036;SDS011;36325;51.512;-0.382;2023-02-17T10:03:27;12.32;;;1.17;;
30036;SDS011;36325;51.512;-0.382;2023-02-17T10:06:17;10.07;;;1.90;;
30036;SDS011;36325;51.512;-0.382;2023-02-17T10:08:58;2.35;;;0.93;;
30036;SDS011;36325;51.512;-0.382;2023-02-17T10:11:55;5.65;;;0.95;;
30036;SDS011;36325;51.512;-0.382;2023-02-17T10:17:21;16.20;;;4.72;;
30036;SDS011;36325;51.512;-0.382;2023-02-17T10:22:42;19.83;;;2.38;;
30036;SDS011;36325;51.512;-0.382;2023-02-17T10:25:17;10.73;;;1.63;;
30036;SDS011;36325;51.512;-0.382;2023-02-17T10:28:03;4.07;;;0.82;;
30036;SDS011;36325;51.512;-0.382;2023-02-17T10:35:52;2.78;;;0.73;;
30036;SDS011;36325;51.512;-0.382;2023-02-17T10:41:02;1.98;;;0.60;;
30036;SDS011;36325;51.512;-0.382;2023-02-17T10:43:32;4.13;;;0.93;;
30036;SDS011;36325;51.512;-0.382;2023-02-17T10:46:01;7.20;;;0.75;;
30036;SDS011;36325;51.512;-0.382;2023-02-17T10:48:43;1.45;;;0.90;;
30036;SDS011;36325;51.512;-0.382;2023-02-17T10:51:28;3.03;;;0.70;;
30036;SDS011;36325;51.512;-0.382;2023-02-17T10:54:10;2.03;;;0.63;;
30036;SDS011;36325;51.512;-0.382;2023-02-17T10:56:53;4.47;;;1.80;;
30036;SDS011;36325;51.512;-0.382;2023-02-17T10:59:26;7.95;;;1.65;;
30036;SDS011;36325;51.512;-0.382;2023-02-17T11:02:49;6.05;;;1.15;;
30036;SDS011;36325;51.512;-0.382;2023-02-17T11:05:03;16.92;;;4.35;;
30036;SDS011;36325;51.512;-0.382;2023-02-17T11:07:33;13.00;;;2.22;;
30036;SDS011;36325;51.512;-0.382;2023-02-17T11:10:18;7.07;;;1.25;;
30036;SDS011;36325;51.512;-0.382;2023-02-17T11:12:46;6.47;;;1.00;;
30036;SDS011;36325;51.512;-0.382;2023-02-17T11:15:20;2.58;;;0.47;;
30036;SDS011;36325;51.512;-0.382;2023-02-17T11:17:53;11.18;;;0.95;;
30036;SDS011;36325;51.512;-0.382;2023-02-17T11:20:32;3.03;;;0.60;;
30036;SDS011;36325;51.512;-0.382;2023-02-17T11:23:05;2.97;;;0.75;;
30036;SDS011;36325;51.512;-0.382;2023-02-17T11:25:42;3.80;;;0.80;;
30036;SDS011;36325;51.512;-0.382;2023-02-17T11:28:21;6.72;;;1.25;;
30036;SDS011;36325;51.512;-0.382;2023-02-17T11:30:53;1.45;;;0.63;;
30036;SDS011;36325;51.512;-0.382;2023-02-17T11:33:33;2.50;;;0.63;;
30036;SDS011;36325;51.512;-0.382;2023-02-17T11:36:03;5.47;;;1.33;;
30036;SDS011;36325;51.512;-0.382;2023-02-17T11:38:41;4.93;;;1.85;;
30036;SDS011;36325;51.512;-0.382;2023-02-17T11:41:11;8.25;;;1.85;;
30036;SDS011;36325;51.512;-0.382;2023-02-17T11:43:42;2.72;;;0.68;;
30036;SDS011;36325;51.512;-0.382;2023-02-17T11:46:39;3.92;;;0.73;;
30036;SDS011;36325;51.512;-0.382;2023-02-17T12:09:34;7.00;;;0.68;;
30036;SDS011;36325;51.512;-0.382;2023-02-17T12:20:29;2.30;;;1.27;;
30036;SDS011;36325;51.512;-0.382;2023-02-17T12:23:06;3.30;;;0.82;;
30036;SDS011;36325;51.512;-0.382;2023-02-17T12:25:56;6.28;;;0.73;;
30036;SDS011;36325;51.512;-0.382;2023-02-17T12:31:47;6.70;;;0.73;;
30036;SDS011;36325;51.512;-0.382;2023-02-17T12:34:35;5.28;;;1.52;;
30036;SDS011;36325;51.512;-0.382;2023-02-17T12:40:24;5.47;;;1.38;;
30036;SDS011;36325;51.512;-0.382;2023-02-17T12:43:07;1.60;;;0.50;;
30036;SDS011;36325;51.512;-0.382;2023-02-17T12:45:51;1.00;;;0.52;;
30036;SDS011;36325;51.512;-0.382;2023-02-17T12:48:28;1.63;;;0.45;;
30036;SDS011;36325;51.512;-0.382;2023-02-17T12:53:53;2.05;;;0.75;;
30036;SDS011;36325;51.512;-0.382;2023-02-17T12:59:56;1.73;;;1.00;;
30036;SDS011;36325;51.512;-0.382;2023-02-17T13:02:26;3.20;;;0.43;;
30036;SDS011;36325;51.512;-0.382;2023-02-17T13:05:00;1.45;;;0.50;;
30036;SDS011;36325;51.512;-0.382;2023-02-17T13:07:45;4.55;;;0.55;;
30036;SDS011;36325;51.512;-0.382;2023-02-17T13:10:31;4.38;;;0.30;;
30036;SDS011;36325;51.512;-0.382;2023-02-17T13:13:11;3.78;;;0.40;;
30036;SDS011;36325;51.512;-0.382;2023-02-17T13:18:40;5.20;;;0.40;;
30036;SDS011;36325;51.512;-0.382;2023-02-17T13:24:02;6.70;;;0.80;;
30036;SDS011;36325;51.512;-0.382;2023-02-17T13:26:39;2.70;;;0.47;;
30036;SDS011;36325;51.512;-0.382;2023-02-17T13:34:37;0.63;;;0.50;;
30036;SDS011;36325;51.512;-0.382;2023-02-17T13:37:44;2.83;;;0.32;;
30036;SDS011;36325;51.512;-0.382;2023-02-17T13:42:56;1.67;;;0.43;;
30036;SDS011;36325;51.512;-0.382;2023-02-17T13:48:24;1.45;;;0.30;;
30036;SDS011;36325;51.512;-0.382;2023-02-17T13:53:38;4.47;;;0.40;;
30036;SDS011;36325;51.512;-0.382;2023-02-17T13:56:22;4.32;;;2.13;;
30036;SDS011;36325;51.512;-0.382;2023-02-17T13:59:07;4.15;;;1.55;;
30036;SDS011;36325;51.512;-0.382;2023-02-17T14:01:45;9.32;;;1.00;;
30036;SDS011;36325;51.512;-0.382;2023-02-17T14:04:24;4.25;;;0.47;;
30036;SDS011;36325;51.512;-0.382;2023-02-17T14:07:01;2.35;;;0.43;;
30036;SDS011;36325;51.512;-0.382;2023-02-17T14:09:31;1.75;;;0.40;;
30036;SDS011;36325;51.512;-0.382;2023-02-17T14:12:01;6.32;;;0.50;;
30036;SDS011;36325;51.512;-0.382;2023-02-17T14:14:36;0.50;;;0.35;;
30036;SDS011;36325;51.512;-0.382;2023-02-17T14:17:12;1.40;;;0.50;;
30036;SDS011;36325;51.512;-0.382;2023-02-17T14:19:56;1.98;;;0.50;;
30036;SDS011;36325;51.512;-0.382;2023-02-17T14:22:40;2.63;;;0.50;;
30036;SDS011;36325;51.512;-0.382;2023-02-17T14:25:27;1.52;;;0.55;;
30036;SDS011;36325;51.512;-0.382;2023-02-17T14:28:01;3.17;;;0.60;;
30036;SDS011;36325;51.512;-0.382;2023-02-17T14:35:52;3.85;;;0.77;;
30036;SDS011;36325;51.512;-0.382;2023-02-17T14:38:39;2.22;;;0.70;;
30036;SDS011;36325;51.512;-0.382;2023-02-17T14:41:08;2.30;;;0.50;;
30036;SDS011;36325;51.512;-0.382;2023-02-17T14:43:36;1.90;;;0.80;;
30036;SDS011;36325;51.512;-0.382;2023-02-17T14:46:04;1.90;;;0.50;;
30036;SDS011;36325;51.512;-0.382;2023-02-17T14:48:34;1.10;;;0.47;;
30036;SDS011;36325;51.512;-0.382;2023-02-17T14:51:11;4.07;;;0.60;;
30036;SDS011;36325;51.512;-0.382;2023-02-17T14:53:42;3.65;;;0.70;;
30036;SDS011;36325;51.512;-0.382;2023-02-17T14:59:05;2.33;;;0.38;;
30036;SDS011;36325;51.512;-0.382;2023-02-17T15:01:36;4.15;;;1.17;;
30036;SDS011;36325;51.512;-0.382;2023-02-17T15:04:19;2.42;;;0.40;;
30036;SDS011;36325;51.512;-0.382;2023-02-17T15:06:49;1.52;;;0.30;;
30036;SDS011;36325;51.512;-0.382;2023-02-17T15:09:35;3.15;;;0.85;;
30036;SDS011;36325;51.512;-0.382;2023-02-17T15:12:02;0.60;;;0.30;;
30036;SDS011;36325;51.512;-0.382;2023-02-17T15:14:34;1.98;;;0.40;;
30036;SDS011;36325;51.512;-0.382;2023-02-17T15:19:48;0.80;;;0.57;;
30036;SDS011;36325;51.512;-0.382;2023-02-17T15:22:16;2.10;;;0.30;;
30036;SDS011;36325;51.512;-0.382;2023-02-17T15:24:44;1.02;;;0.50;;
30036;SDS011;36325;51.512;-0.382;2023-02-17T15:27:13;2.83;;;0.63;;
30036;SDS011;36325;51.512;-0.382;2023-02-17T15:29:44;3.15;;;0.32;;
30036;SDS011;36325;51.512;-0.382;2023-02-17T15:38:33;3.53;;;0.38;;
30036;SDS011;36325;51.512;-0.382;2023-02-17T15:41:10;3.92;;;0.52;;
30036;SDS011;36325;51.512;-0.382;2023-02-17T15:43:40;0.57;;;0.30;;
30036;SDS011;36325;51.512;-0.382;2023-02-17T15:46:28;1.25;;;0.43;;
30036;SDS011;36325;51.512;-0.382;2023-02-17T15:48:59;8.15;;;0.40;;
30036;SDS011;36325;51.512;-0.382;2023-02-17T15:51:33;0.98;;;0.30;;
30036;SDS011;36325;51.512;-0.382;2023-02-17T15:54:00;6.05;;;0.88;;
30036;SDS011;36325;51.512;-0.382;2023-02-17T15:56:46;1.50;;;0.40;;
30036;SDS011;36325;51.512;-0.382;2023-02-17T15:59:24;1.45;;;0.30;;
30036;SDS011;36325;51.512;-0.382;2023-02-17T16:01:52;3.42;;;0.50;;
30036;SDS011;36325;51.512;-0.382;2023-02-17T16:04:28;0.50;;;0.20;;
30036;SDS011;36325;51.512;-0.382;2023-02-17T16:07:11;2.25;;;0.50;;
30036;SDS011;36325;51.512;-0.382;2023-02-17T16:09:39;1.38;;;0.70;;
30036;SDS011;36325;51.512;-0.382;2023-02-17T16:12:18;2.97;;;0.40;;
30036;SDS011;36325;51.512;-0.382;2023-02-17T16:14:55;3.45;;;0.47;;
30036;SDS011;36325;51.512;-0.382;2023-02-17T16:17:23;0.75;;;0.30;;
30036;SDS011;36325;51.512;-0.382;2023-02-17T16:19:56;2.00;;;0.20;;
30036;SDS011;36325;51.512;-0.382;2023-02-17T16:22:37;3.90;;;0.50;;
30036;SDS011;36325;51.512;-0.382;2023-02-17T16:27:37;1.25;;;0.50;;
30036;SDS011;36325;51.512;-0.382;2023-02-17T16:33:27;4.05;;;0.60;;
30036;SDS011;36325;51.512;-0.382;2023-02-17T16:35:59;4.93;;;0.43;;
30036;SDS011;36325;51.512;-0.382;2023-02-17T16:38:27;3.58;;;0.93;;
30036;SDS011;36325;51.512;-0.382;2023-02-17T16:41:05;1.25;;;0.60;;
30036;SDS011;36325;51.512;-0.382;2023-02-17T16:43:41;1.05;;;0.50;;
30036;SDS011;36325;51.512;-0.382;2023-02-17T16:46:36;2.08;;;0.63;;
30036;SDS011;36325;51.512;-0.382;2023-02-17T16:49:15;2.57;;;1.20;;
30036;SDS011;36325;51.512;-0.382;2023-02-17T16:52:05;1.45;;;0.70;;
30036;SDS011;36325;51.512;-0.382;2023-02-17T16:54:47;1.02;;;0.77;;
30036;SDS011;36325;51.512;-0.382;2023-02-17T16:57:29;4.75;;;1.27;;
30036;SDS011;36325;51.512;-0.382;2023-02-17T16:59:58;2.78;;;0.98;;
30036;SDS011;36325;51.512;-0.382;2023-02-17T17:02:34;1.77;;;1.30;;